Terminal Aerodrome Forecast
Issued by NWS

Current Version | Previous Version | Text Only | Print | Product List | Glossary On
Versions: 1 2 3 4 5 6 7 8 9 10 11 12 13 14 15 16 17 18 19 20 21 22 23 24 25 26 27 28 29
952
FTUS41 KOKX 292327
TAFHPN
TAF
KHPN 292327Z 3000/3024 16004KT P6SM SCT040 BKN150
     FM300200 VRB03KT 6SM BR FEW040 SCT150
      TEMPO 3008/3012 5SM BR
     FM301200 06004KT P6SM BKN050 BKN150
     FM301600 12005KT P6SM BKN050 BKN120
     FM302000 16006KT P6SM BKN050 BKN120
      AMD NOT SKED=

USA.gov is the U.S. government's official web portal to all federal, state and local government web resources and services.